createdAt,value
2018-10-16T00:00:07.221Z,77.24
2018-10-16T00:02:39.917Z,77.75
2018-10-16T00:05:11.307Z,77.68
2018-10-16T00:07:43.786Z,77.53
2018-10-16T00:10:14.214Z,78.34
2018-10-16T00:12:45.484Z,77.91
2018-10-16T00:15:15.926Z,77.67
2018-10-16T00:17:46.632Z,76.75
2018-10-16T00:20:17.068Z,77.07
2018-10-16T00:22:49.048Z,77.67
2018-10-16T00:25:21.811Z,77.11
2018-10-16T00:27:53.648Z,76.69
2018-10-16T00:30:23.994Z,77.57
2018-10-16T00:32:54.497Z,77.48
2018-10-16T00:35:24.979Z,77.57
2018-10-16T00:37:55.149Z,76.66
2018-10-16T00:40:25.228Z,76.51
2018-10-16T00:42:55.899Z,76.46
2018-10-16T00:45:27.447Z,77.27
2018-10-16T00:47:58.529Z,77.60
2018-10-16T00:50:29.011Z,78.27
2018-10-16T00:52:59.279Z,78.16
2018-10-16T00:55:30.076Z,77.66
2018-10-16T00:58:00.565Z,78.10
2018-10-16T01:00:32.190Z,77.89
2018-10-16T01:03:03.559Z,77.76
2018-10-16T01:05:33.874Z,77.94
2018-10-16T01:08:04.592Z,77.91
2018-10-16T01:10:35.823Z,78.72
2018-10-16T01:13:06.592Z,77.96
2018-10-16T01:15:36.795Z,77.84
2018-10-16T01:18:07.494Z,77.60
2018-10-16T01:20:37.680Z,77.92
2018-10-16T01:23:07.983Z,77.50
2018-10-16T01:25:38.464Z,77.76
2018-10-16T01:28:09.445Z,76.94
2018-10-16T01:30:40.243Z,76.57
2018-10-16T01:33:10.828Z,76.41
2018-10-16T01:35:41.857Z,76.71
2018-10-16T01:38:12.387Z,76.38
2018-10-16T01:40:43.013Z,77.41
2018-10-16T01:43:14.542Z,77.02
2018-10-16T01:45:45.009Z,77.11
2018-10-16T01:48:16.721Z,76.48
2018-10-16T01:53:30.712Z,77.11
2018-10-16T01:56:01.769Z,76.42
2018-10-16T01:58:31.750Z,77.79
2018-10-16T02:01:01.993Z,77.52
2018-10-16T02:03:33.623Z,77.07
2018-10-16T02:06:03.725Z,77.59
2018-10-16T02:08:36.162Z,77.58
2018-10-16T02:11:07.472Z,77.26
2018-10-16T02:13:39.597Z,78.01
2018-10-16T02:16:10.405Z,77.84
2018-10-16T02:18:40.923Z,77.50
2018-10-16T02:21:11.664Z,76.99
2018-10-16T02:23:42.612Z,77.27
2018-10-16T02:26:12.779Z,77.43
2018-10-16T02:28:42.909Z,76.45
2018-10-16T02:31:13.377Z,77.02
2018-10-16T02:33:43.335Z,77.02
2018-10-16T02:36:15.413Z,76.40
2018-10-16T02:38:47.034Z,76.95
2018-10-16T02:41:18.213Z,77.42
2018-10-16T02:43:49.756Z,76.95
2018-10-16T02:46:23.049Z,77.13
2018-10-16T02:48:54.531Z,76.51
2018-10-16T02:51:24.723Z,77.05
2018-10-16T02:53:58.355Z,78.53
2018-10-16T02:56:29.316Z,78.88
2018-10-16T02:59:02.875Z,78.82
2018-10-16T03:01:33.295Z,79.08
2018-10-16T03:04:06.492Z,79.34
2018-10-16T03:06:36.536Z,79.78
2018-10-16T03:09:10.069Z,80.21
2018-10-16T03:11:40.173Z,79.92
2018-10-16T03:14:10.077Z,79.77
2018-10-16T03:16:40.678Z,80.02
2018-10-16T03:19:10.587Z,80.37
2018-10-16T03:21:41.280Z,79.40
2018-10-16T03:24:11.445Z,79.62
2018-10-16T03:26:41.446Z,79.82
2018-10-16T03:29:13.647Z,79.58
2018-10-16T03:31:46.526Z,78.78
2018-10-16T03:34:17.137Z,79.02
2018-10-16T03:36:47.854Z,78.46
2018-10-16T03:39:20.381Z,79.25
2018-10-16T03:41:52.981Z,79.13
2018-10-16T03:44:24.534Z,78.71
2018-10-16T03:46:55.268Z,79.13
2018-10-16T03:49:27.657Z,78.75
2018-10-16T03:51:57.966Z,79.11
2018-10-16T03:54:27.981Z,80.03
2018-10-16T03:57:01.515Z,79.89
2018-10-16T03:59:32.982Z,80.51
2018-10-16T04:02:03.159Z,80.84
2018-10-16T04:04:33.576Z,80.86
2018-10-16T04:07:04.475Z,80.89
2018-10-16T04:09:34.920Z,81.26
2018-10-16T04:12:06.800Z,80.75
2018-10-16T04:14:37.682Z,80.66
2018-10-16T04:17:07.729Z,80.15
2018-10-16T04:19:38.233Z,80.21
2018-10-16T04:22:08.278Z,79.10
2018-10-16T04:24:38.475Z,79.16
2018-10-16T04:27:08.639Z,79.61
2018-10-16T04:29:39.627Z,78.93
2018-10-16T04:32:10.772Z,79.25
2018-10-16T04:34:42.725Z,79.77
2018-10-16T04:37:15.171Z,80.48
2018-10-16T04:39:47.182Z,80.71
2018-10-16T04:42:17.291Z,79.84
2018-10-16T04:44:47.410Z,79.91
2018-10-16T04:47:18.146Z,81.12
2018-10-16T04:49:48.477Z,80.42
2018-10-16T04:52:20.233Z,81.46
2018-10-16T04:54:50.654Z,81.00
2018-10-16T04:57:21.634Z,81.51
2018-10-16T04:59:51.672Z,80.26
2018-10-16T05:02:22.474Z,79.91
2018-10-16T05:04:55.060Z,80.18
2018-10-16T05:07:25.388Z,80.17
2018-10-16T05:09:59.114Z,80.81
2018-10-16T05:12:31.932Z,80.41
2018-10-16T05:15:08.108Z,80.99
2018-10-16T05:17:38.359Z,80.77
2018-10-16T05:20:09.670Z,80.15
2018-10-16T05:22:40.500Z,79.83
2018-10-16T05:25:13.041Z,80.14
2018-10-16T05:27:44.811Z,80.63
2018-10-16T05:30:18.558Z,81.42
2018-10-16T05:32:49.318Z,82.61
2018-10-16T05:35:24.250Z,82.42
2018-10-16T05:37:55.079Z,81.67
2018-10-16T05:40:25.550Z,81.64
2018-10-16T05:42:58.348Z,82.44
2018-10-16T05:45:31.139Z,82.30
2018-10-16T05:48:02.632Z,82.04
2018-10-16T05:50:34.003Z,82.34
2018-10-16T05:53:04.616Z,82.15
2018-10-16T05:55:37.494Z,82.27
2018-10-16T05:58:08.793Z,82.17
2018-10-16T06:00:47.351Z,81.92
2018-10-16T06:03:25.143Z,82.21
2018-10-16T06:05:55.968Z,83.11
2018-10-16T06:08:26.280Z,83.47
2018-10-16T06:10:56.781Z,82.86
2018-10-16T06:13:27.063Z,83.51
2018-10-16T06:15:57.617Z,83.51
2018-10-16T06:18:31.034Z,83.94
2018-10-16T06:21:01.211Z,84.05
2018-10-16T06:23:31.844Z,84.69
2018-10-16T06:26:05.428Z,84.53
2018-10-16T06:28:36.926Z,83.79
2018-10-16T06:31:10.119Z,84.07
2018-10-16T06:33:42.155Z,83.73
2018-10-16T06:36:12.427Z,83.21
2018-10-16T06:38:42.799Z,82.96
2018-10-16T06:41:14.242Z,83.77
2018-10-16T06:43:44.707Z,83.87
2018-10-16T06:46:14.432Z,83.66
2018-10-16T06:48:44.934Z,83.49
2018-10-16T06:51:14.894Z,83.86
2018-10-16T06:56:17.103Z,82.85
2018-10-16T06:58:52.165Z,82.06
2018-10-16T07:01:24.059Z,81.60
2018-10-16T07:03:57.709Z,81.17
2018-10-16T07:06:35.560Z,80.73
2018-10-16T07:09:07.862Z,81.20
2018-10-16T07:11:43.703Z,81.99
2018-10-16T07:14:27.179Z,80.27
2018-10-16T07:17:02.128Z,80.11
2018-10-16T07:19:32.357Z,80.34
2018-10-16T07:22:09.603Z,80.53
2018-10-16T07:24:42.897Z,81.16
2018-10-16T07:27:14.883Z,81.84
2018-10-16T07:29:45.925Z,81.93
2018-10-16T07:32:17.037Z,80.89
2018-10-16T07:36:47.079Z,81.29
2018-10-16T07:39:17.835Z,80.01
2018-10-16T07:41:50.528Z,79.37
2018-10-16T07:44:22.980Z,78.46
2018-10-16T07:46:54.266Z,78.69
2018-10-16T07:49:26.898Z,78.11
2018-10-16T07:51:57.412Z,78.94
2018-10-16T07:54:27.647Z,78.59
2018-10-16T07:56:57.589Z,78.89
2018-10-16T07:59:28.833Z,77.88
2018-10-16T08:02:00.454Z,77.54
2018-10-16T08:04:32.299Z,77.22
2018-10-16T08:07:03.551Z,77.09
2018-10-16T08:09:34.642Z,76.39
2018-10-16T08:12:08.488Z,77.97
2018-10-16T08:14:40.157Z,76.74
2018-10-16T08:17:10.745Z,76.70
2018-10-16T08:19:41.213Z,76.82
2018-10-16T08:22:12.351Z,76.13
2018-10-16T08:24:42.266Z,75.56
2018-10-16T08:27:12.501Z,75.33
2018-10-16T08:29:43.329Z,75.76
2018-10-16T08:32:13.719Z,75.47
2018-10-16T08:34:43.893Z,75.77
2018-10-16T08:37:24.277Z,75.46
2018-10-16T08:40:00.954Z,74.59
2018-10-16T08:43:05.898Z,74.65
2018-10-16T08:47:57.600Z,74.46
2018-10-16T08:50:46.040Z,74.42
2018-10-16T08:53:16.028Z,75.83
2018-10-16T08:55:47.287Z,74.76
2018-10-16T08:58:17.251Z,74.15
2018-10-16T09:00:47.530Z,74.80
2018-10-16T09:03:20.934Z,73.94
2018-10-16T09:05:51.238Z,74.22
2018-10-16T09:08:21.397Z,73.69
2018-10-16T09:10:51.817Z,74.16
2018-10-16T09:13:22.719Z,73.40
2018-10-16T09:15:53.099Z,72.41
2018-10-16T09:18:23.063Z,72.16
2018-10-16T09:20:56.183Z,72.83
2018-10-16T09:23:26.433Z,73.14
2018-10-16T09:25:57.350Z,72.59
2018-10-16T09:28:27.150Z,72.29
2018-10-16T09:30:58.626Z,72.26
2018-10-16T09:33:29.360Z,72.52
2018-10-16T09:35:59.549Z,72.81
2018-10-16T09:38:31.495Z,72.34
2018-10-16T09:41:01.977Z,72.09
2018-10-16T09:43:31.982Z,72.70
2018-10-16T09:46:01.942Z,71.48
2018-10-16T09:48:34.260Z,71.81
2018-10-16T09:51:04.245Z,72.13
2018-10-16T09:53:35.355Z,71.98
2018-10-16T09:56:13.461Z,70.99
2018-10-16T09:58:45.022Z,70.64
2018-10-16T10:01:20.385Z,69.82
2018-10-16T10:03:50.461Z,70.13
2018-10-16T10:06:20.850Z,69.96
2018-10-16T10:08:51.463Z,69.94
2018-10-16T10:11:22.017Z,69.28
2018-10-16T10:13:52.266Z,69.96
2018-10-16T10:16:22.905Z,69.24
2018-10-16T10:18:53.910Z,68.85
2018-10-16T10:21:24.628Z,69.50
2018-10-16T10:23:54.536Z,69.79
2018-10-16T10:26:27.212Z,70.14
2018-10-16T10:28:58.444Z,70.13
2018-10-16T10:31:35.537Z,69.21
2018-10-16T10:34:06.441Z,69.11
2018-10-16T10:36:41.485Z,69.77
2018-10-16T10:39:15.678Z,70.27
2018-10-16T10:41:48.051Z,70.06
2018-10-16T10:44:19.745Z,70.27
2018-10-16T10:46:51.663Z,70.83
2018-10-16T10:49:23.851Z,70.83
2018-10-16T10:51:54.625Z,70.51
2018-10-16T10:57:11.737Z,71.54
2018-10-16T10:59:42.221Z,72.15
2018-10-16T11:02:13.007Z,72.34
2018-10-16T11:04:43.870Z,72.04
2018-10-16T11:07:14.215Z,71.05
2018-10-16T11:09:45.043Z,71.48
2018-10-16T11:12:15.531Z,71.72
2018-10-16T11:14:51.265Z,71.10
2018-10-16T11:17:26.653Z,71.42
2018-10-16T11:19:57.964Z,72.20
2018-10-16T11:22:33.762Z,71.20
2018-10-16T11:25:05.555Z,71.52
2018-10-16T11:27:36.891Z,71.69
2018-10-16T11:30:14.687Z,71.59
2018-10-16T11:32:50.555Z,70.89
2018-10-16T11:35:21.303Z,71.26
2018-10-16T11:37:51.189Z,70.49
2018-10-16T11:40:23.809Z,71.41
2018-10-16T11:42:55.284Z,72.00
2018-10-16T11:45:29.638Z,71.56
2018-10-16T11:47:59.684Z,72.18
2018-10-16T11:50:32.582Z,71.85
2018-10-16T11:53:03.515Z,71.69
2018-10-16T11:55:34.453Z,72.87
2018-10-16T11:58:06.524Z,72.91
2018-10-16T12:00:36.831Z,72.13
2018-10-16T12:03:07.497Z,72.25
2018-10-16T12:05:43.159Z,72.62
2018-10-16T12:08:15.127Z,73.02
2018-10-16T12:10:45.947Z,73.72
2018-10-16T12:13:19.209Z,74.65
2018-10-16T12:15:53.180Z,74.33
2018-10-16T12:18:43.809Z,74.88
2018-10-16T12:21:19.225Z,74.29
2018-10-16T12:23:53.407Z,74.09
2018-10-16T12:29:25.246Z,74.17
2018-10-16T12:31:56.286Z,74.95
2018-10-16T12:34:35.676Z,75.13
2018-10-16T12:37:07.715Z,74.32
2018-10-16T12:39:40.627Z,73.86
2018-10-16T12:42:13.845Z,74.32
2018-10-16T12:44:45.395Z,74.44
2018-10-16T12:47:16.005Z,75.17
2018-10-16T12:49:48.333Z,75.19
2018-10-16T12:52:20.628Z,74.43
2018-10-16T12:54:51.876Z,75.31
2018-10-16T12:57:22.964Z,75.23
2018-10-16T12:59:55.118Z,75.64
2018-10-16T13:02:28.853Z,75.31
2018-10-16T13:05:02.998Z,74.79
2018-10-16T13:07:39.988Z,74.58
2018-10-16T13:10:19.038Z,74.40
2018-10-16T13:12:49.724Z,74.49
2018-10-16T13:15:21.226Z,75.29
2018-10-16T13:18:06.328Z,75.39
2018-10-16T13:20:37.296Z,74.88
2018-10-16T13:23:10.046Z,75.64
2018-10-16T13:25:42.268Z,76.15
2018-10-16T13:28:12.642Z,76.24
2018-10-16T13:30:44.055Z,76.72
2018-10-16T13:33:13.837Z,76.63
2018-10-16T13:35:46.649Z,76.80
2018-10-16T13:38:16.516Z,76.79
2018-10-16T13:40:48.633Z,76.19
2018-10-16T13:43:18.932Z,76.64
2018-10-16T13:45:52.599Z,76.37
2018-10-16T13:48:23.127Z,76.08
2018-10-16T13:50:53.513Z,76.31
2018-10-16T13:53:24.781Z,76.04
2018-10-16T13:55:55.556Z,77.14
2018-10-16T13:58:25.845Z,76.81
2018-10-16T14:00:56.088Z,77.38
2018-10-16T14:03:29.431Z,76.39
2018-10-16T14:06:00.398Z,76.86
2018-10-16T14:08:30.711Z,77.44
2018-10-16T14:11:03.114Z,77.29
2018-10-16T14:13:34.327Z,76.96
2018-10-16T14:16:04.723Z,76.95
2018-10-16T14:18:35.704Z,76.94
2018-10-16T14:21:14.483Z,78.84
2018-10-16T14:23:48.650Z,79.88
2018-10-16T14:26:20.701Z,79.47
2018-10-16T14:28:57.861Z,79.33
2018-10-16T14:31:28.520Z,78.97
2018-10-16T14:33:59.913Z,79.63
2018-10-16T14:36:35.777Z,79.72
2018-10-16T14:39:10.463Z,79.33
2018-10-16T14:41:42.651Z,79.54
2018-10-16T14:44:13.095Z,79.41
2018-10-16T14:46:46.853Z,80.91
2018-10-16T14:49:16.933Z,80.32
2018-10-16T14:51:47.544Z,80.94
2018-10-16T14:54:33.096Z,81.48
2018-10-16T14:59:58.363Z,81.96
2018-10-16T15:02:29.432Z,82.49
2018-10-16T15:05:01.109Z,83.19
2018-10-16T15:07:30.733Z,82.95
2018-10-16T15:10:00.903Z,82.13
2018-10-16T15:12:30.734Z,82.10
2018-10-16T15:15:01.769Z,82.18
2018-10-16T15:17:32.565Z,82.25
2018-10-16T15:20:03.261Z,83.40
2018-10-16T15:22:34.089Z,82.96
2018-10-16T15:25:04.947Z,84.03
2018-10-16T15:27:35.140Z,83.42
2018-10-16T15:30:13.870Z,82.88
2018-10-16T15:32:49.074Z,83.60
2018-10-16T15:35:28.115Z,84.09
2018-10-16T15:38:00.336Z,84.30
2018-10-16T15:40:33.762Z,85.22
2018-10-16T15:46:07.817Z,84.41
2018-10-16T15:48:38.154Z,84.96
2018-10-16T15:51:08.391Z,85.17
2018-10-16T15:53:41.248Z,84.90
2018-10-16T15:59:34.453Z,84.44
2018-10-16T16:02:33.134Z,84.47
2018-10-16T16:05:13.761Z,85.55
2018-10-16T16:07:47.085Z,85.94
2018-10-16T16:10:23.990Z,84.91
2018-10-16T16:12:56.188Z,85.28
2018-10-16T16:15:57.724Z,85.15
2018-10-16T16:18:37.359Z,84.76
2018-10-16T16:21:20.061Z,84.88
2018-10-16T16:23:55.713Z,85.40
2018-10-16T16:26:31.184Z,85.38
2018-10-16T16:29:03.876Z,85.80
2018-10-16T16:31:47.004Z,86.46
2018-10-16T16:34:23.836Z,86.91
2018-10-16T16:36:59.810Z,86.74
2018-10-16T16:39:40.967Z,86.93
2018-10-16T16:42:13.559Z,87.75
2018-10-16T16:45:09.404Z,87.27
2018-10-16T16:47:53.221Z,88.02
2018-10-16T16:50:27.566Z,87.29
2018-10-16T16:52:57.850Z,87.27
2018-10-16T16:55:28.396Z,88.10
2018-10-16T16:57:58.566Z,87.58
2018-10-16T17:00:30.047Z,86.84
2018-10-16T17:03:02.040Z,87.20
2018-10-16T17:05:32.294Z,86.50
2018-10-16T17:08:05.094Z,87.23
2018-10-16T17:10:36.749Z,86.67
2018-10-16T17:13:07.012Z,87.02
2018-10-16T17:15:38.376Z,87.90
2018-10-16T17:18:09.626Z,88.27
2018-10-16T17:20:40.897Z,88.40
2018-10-16T17:23:12.092Z,88.33
2018-10-16T17:25:42.607Z,87.84
2018-10-16T17:28:14.959Z,87.66
2018-10-16T17:30:45.292Z,87.67
2018-10-16T17:33:16.735Z,88.41
2018-10-16T17:35:47.994Z,87.60
2018-10-16T17:38:19.612Z,88.30
2018-10-16T17:40:52.051Z,87.89
2018-10-16T17:43:31.280Z,88.17
2018-10-16T17:46:03.198Z,87.95
2018-10-16T17:48:34.135Z,88.71
2018-10-16T17:51:04.442Z,88.94
2018-10-16T17:53:47.474Z,88.61
2018-10-16T17:56:24.077Z,88.82
2018-10-16T17:58:58.650Z,88.73
2018-10-16T18:01:30.334Z,88.75
2018-10-16T18:04:03.717Z,90.01
2018-10-16T18:06:35.265Z,90.21
2018-10-16T18:09:10.945Z,89.62
2018-10-16T18:11:42.152Z,90.47
2018-10-16T18:14:13.335Z,89.51
2018-10-16T18:19:25.522Z,90.28
2018-10-16T18:21:59.567Z,90.01
2018-10-16T18:24:32.333Z,90.12
2018-10-16T18:27:08.083Z,90.12
2018-10-16T18:29:42.431Z,90.87
2018-10-16T18:32:13.977Z,91.41
2018-10-16T18:34:45.891Z,91.33
2018-10-16T18:37:16.975Z,90.84
2018-10-16T18:39:51.460Z,90.37
2018-10-16T18:42:23.354Z,91.48
2018-10-16T18:45:01.599Z,91.05
2018-10-16T18:47:33.270Z,91.05
2018-10-16T18:50:03.629Z,90.49
2018-10-16T18:52:34.518Z,90.66
2018-10-16T18:55:05.284Z,90.89
2018-10-16T18:57:35.954Z,89.98
2018-10-16T19:02:56.370Z,90.63
2018-10-16T19:05:27.217Z,90.94
2018-10-16T19:07:59.275Z,90.70
2018-10-16T19:10:38.082Z,91.50
2018-10-16T19:13:18.467Z,90.97
2018-10-16T19:15:56.134Z,92.16
2018-10-16T19:18:26.579Z,91.42
2018-10-16T19:21:05.432Z,91.64
2018-10-16T19:23:38.205Z,91.04
2018-10-16T19:26:09.302Z,91.28
2018-10-16T19:28:40.206Z,91.58
2018-10-16T19:31:10.428Z,91.20
2018-10-16T19:33:41.680Z,91.39
2018-10-16T19:36:13.759Z,90.45
2018-10-16T19:38:49.835Z,90.35
2018-10-16T19:41:20.840Z,90.28
2018-10-16T19:43:51.880Z,90.30
2018-10-16T19:46:22.921Z,90.23
2018-10-16T19:48:54.605Z,90.29
2018-10-16T19:51:25.162Z,90.31
2018-10-16T19:53:58.093Z,90.44
2018-10-16T19:56:29.953Z,90.93
2018-10-16T19:59:01.776Z,90.69
2018-10-16T20:04:50.489Z,91.16
2018-10-16T20:07:21.188Z,91.23
2018-10-16T20:09:51.752Z,91.55
2018-10-16T20:12:21.982Z,90.64
2018-10-16T20:14:54.361Z,91.54
2018-10-16T20:17:25.494Z,91.23
2018-10-16T20:19:56.427Z,91.27
2018-10-16T20:22:27.057Z,91.41
2018-10-16T20:24:58.276Z,91.51
2018-10-16T20:27:30.328Z,90.80
2018-10-16T20:30:02.160Z,91.51
2018-10-16T20:32:33.973Z,91.12
2018-10-16T20:35:05.322Z,91.52
2018-10-16T20:37:35.820Z,90.44
2018-10-16T20:40:06.273Z,90.15
2018-10-16T20:42:38.726Z,90.44
2018-10-16T20:45:09.141Z,90.76
2018-10-16T20:47:39.513Z,90.98
2018-10-16T20:50:09.621Z,90.25
2018-10-16T20:52:40.391Z,90.11
2018-10-16T20:55:11.761Z,90.28
2018-10-16T20:57:41.779Z,90.59
2018-10-16T21:00:12.118Z,91.22
2018-10-16T21:02:43.123Z,89.97
2018-10-16T21:05:14.146Z,90.26
2018-10-16T21:07:45.529Z,89.26
2018-10-16T21:10:15.722Z,89.08
2018-10-16T21:12:45.879Z,89.66
2018-10-16T21:15:15.837Z,90.23
2018-10-16T21:17:46.013Z,91.09
2018-10-16T21:20:16.378Z,92.03
2018-10-16T21:22:47.050Z,91.75
2018-10-16T21:25:17.277Z,92.47
2018-10-16T21:27:47.190Z,91.93
2018-10-16T21:30:17.682Z,91.50
2018-10-16T21:32:48.103Z,91.59
2018-10-16T21:35:20.281Z,91.33
2018-10-16T21:37:50.259Z,92.05
2018-10-16T21:40:21.311Z,92.06
2018-10-16T21:42:51.564Z,92.16
2018-10-16T21:45:22.330Z,92.06
2018-10-16T21:47:53.660Z,92.60
2018-10-16T21:50:24.692Z,92.17
2018-10-16T21:52:56.739Z,92.89
2018-10-16T21:55:27.197Z,92.34
2018-10-16T21:57:57.851Z,93.04
2018-10-16T22:00:33.860Z,92.14
2018-10-16T22:03:07.823Z,91.83
2018-10-16T22:05:38.068Z,91.57
2018-10-16T22:08:09.707Z,92.03
2018-10-16T22:10:42.835Z,91.38
2018-10-16T22:13:16.795Z,90.93
2018-10-16T22:15:47.187Z,90.87
2018-10-16T22:18:17.473Z,90.75
2018-10-16T22:20:53.274Z,90.48
2018-10-16T22:23:23.605Z,90.45
2018-10-16T22:25:55.452Z,89.88
2018-10-16T22:28:26.519Z,89.10
2018-10-16T22:30:57.976Z,90.17
2018-10-16T22:33:28.348Z,89.29
2018-10-16T22:35:59.891Z,89.47
2018-10-16T22:38:29.826Z,89.20
2018-10-16T22:40:59.925Z,89.58
2018-10-16T22:46:20.743Z,90.23
2018-10-16T22:49:40.344Z,90.20
2018-10-16T22:52:11.717Z,90.04
2018-10-16T22:54:41.822Z,89.30
2018-10-16T22:57:11.836Z,89.55
2018-10-16T22:59:42.219Z,91.41
2018-10-16T23:02:13.550Z,91.84
2018-10-16T23:04:43.565Z,90.95
2018-10-16T23:07:14.892Z,91.37
2018-10-16T23:09:47.934Z,91.36
2018-10-16T23:12:19.624Z,92.67
2018-10-16T23:14:50.311Z,91.69
2018-10-16T23:17:22.097Z,91.67
2018-10-16T23:19:53.036Z,91.64
2018-10-16T23:22:22.957Z,92.41
2018-10-16T23:24:53.626Z,91.81
2018-10-16T23:27:24.283Z,91.37
2018-10-16T23:29:56.667Z,91.54
2018-10-16T23:32:27.689Z,90.80
2018-10-16T23:34:58.213Z,90.87
2018-10-16T23:37:28.073Z,90.71
2018-10-16T23:39:59.839Z,91.13
2018-10-16T23:42:30.016Z,91.63
2018-10-16T23:45:01.972Z,90.54
2018-10-16T23:47:33.121Z,90.94
2018-10-16T23:50:04.159Z,90.25
2018-10-16T23:52:35.314Z,90.51
2018-10-16T23:55:07.091Z,90.00
2018-10-16T23:57:37.126Z,90.61
